createdAt,value
2023-01-09T00:01:24.377Z,57.60
2023-01-09T00:03:51.778Z,59.90
2023-01-09T00:06:19.093Z,57.50
2023-01-09T00:08:46.259Z,58.20
2023-01-09T00:11:13.401Z,54.70
2023-01-09T00:13:40.571Z,56.00
2023-01-09T00:16:08.630Z,55.00
2023-01-09T00:18:37.332Z,54.50
2023-01-09T00:21:07.040Z,51.20
2023-01-09T00:23:36.046Z,43.60
2023-01-09T00:26:09.845Z,40.30
2023-01-09T00:28:37.953Z,37.40
2023-01-09T00:31:07.045Z,25.40
2023-01-09T00:33:41.757Z,19.30
2023-01-09T00:36:09.433Z,14.70
2023-01-09T00:38:39.807Z,14.30
2023-01-09T00:41:10.212Z,15.40
2023-01-09T00:43:43.503Z,14.50
2023-01-09T00:46:11.751Z,11.70
2023-01-09T00:48:42.735Z,7.80
2023-01-09T00:51:09.914Z,5.60
2023-01-09T00:53:39.427Z,5.80
2023-01-09T00:56:10.393Z,7.00
2023-01-09T00:58:38.159Z,9.90
2023-01-09T01:01:05.580Z,14.10
2023-01-09T01:03:32.962Z,15.90
2023-01-09T01:06:18.516Z,17.50
2023-01-09T01:08:46.465Z,19.20
2023-01-09T01:11:13.824Z,19.40
2023-01-09T01:13:42.211Z,19.10
2023-01-09T01:16:12.616Z,21.00
2023-01-09T01:18:40.749Z,19.40
2023-01-09T01:21:09.467Z,15.00
2023-01-09T01:23:37.748Z,12.50
2023-01-09T01:26:08.422Z,13.00
2023-01-09T01:28:36.001Z,12.30
2023-01-09T01:31:03.583Z,10.40
2023-01-09T01:33:30.871Z,11.10
2023-01-09T01:36:05.759Z,12.00
2023-01-09T01:38:33.679Z,14.20
2023-01-09T01:41:00.814Z,15.80
2023-01-09T01:43:28.659Z,14.60
2023-01-09T01:45:56.002Z,15.90
2023-01-09T01:48:29.913Z,15.60
2023-01-09T01:51:02.495Z,15.20
2023-01-09T01:53:43.422Z,14.30
2023-01-09T01:56:20.237Z,13.60
2023-01-09T01:59:16.649Z,13.60
2023-01-09T02:01:49.431Z,13.70
2023-01-09T02:04:16.784Z,13.40
2023-01-09T02:06:45.853Z,14.90
2023-01-09T02:09:15.737Z,14.30
2023-01-09T02:11:46.592Z,13.60
2023-01-09T02:14:14.859Z,14.80
2023-01-09T02:17:04.483Z,15.90
2023-01-09T02:20:28.167Z,17.40
2023-01-09T02:23:18.892Z,19.70
2023-01-09T02:26:06.586Z,22.10
2023-01-09T02:28:52.125Z,23.90
2023-01-09T02:31:42.147Z,23.10
2023-01-09T02:34:31.137Z,22.20
2023-01-09T02:37:27.551Z,22.10
2023-01-09T02:40:06.884Z,21.00
2023-01-09T02:42:35.413Z,20.00
2023-01-09T02:45:02.597Z,19.10
2023-01-09T02:47:29.711Z,19.20
2023-01-09T02:50:00.491Z,21.10
2023-01-09T02:52:35.748Z,18.70
2023-01-09T02:55:05.567Z,19.40
2023-01-09T02:57:54.572Z,20.40
2023-01-09T03:00:48.733Z,21.40
2023-01-09T03:03:25.604Z,22.90
2023-01-09T03:06:02.964Z,22.20
2023-01-09T03:08:56.474Z,22.50
2023-01-09T03:11:29.402Z,22.10
2023-01-09T03:14:00.359Z,21.10
2023-01-09T03:16:35.668Z,19.80
2023-01-09T03:19:06.959Z,20.30
2023-01-09T03:21:35.038Z,21.10
2023-01-09T03:24:04.298Z,20.10
2023-01-09T03:26:32.071Z,18.90
2023-01-09T03:28:59.980Z,20.00
2023-01-09T03:31:27.173Z,20.10
2023-01-09T03:33:54.991Z,22.70
2023-01-09T03:36:22.715Z,23.10
2023-01-09T03:38:49.974Z,23.80
2023-01-09T03:41:17.570Z,25.80
2023-01-09T03:43:44.706Z,26.20
2023-01-09T03:46:11.852Z,26.50
2023-01-09T03:48:39.020Z,28.90
2023-01-09T03:51:06.268Z,31.40
2023-01-09T03:53:33.770Z,31.00
2023-01-09T03:56:01.039Z,32.50
2023-01-09T03:58:28.194Z,31.90
2023-01-09T04:01:01.325Z,33.10
2023-01-09T04:03:29.022Z,31.50
2023-01-09T04:05:56.249Z,30.70
2023-01-09T04:08:23.760Z,29.50
2023-01-09T04:10:51.714Z,28.90
2023-01-09T04:13:19.086Z,27.60
2023-01-09T04:15:46.330Z,27.30
2023-01-09T04:18:13.552Z,26.90
2023-01-09T04:20:40.839Z,27.20
2023-01-09T04:23:08.009Z,25.40
2023-01-09T04:25:35.542Z,25.40
2023-01-09T04:28:02.635Z,25.40
2023-01-09T04:30:29.775Z,24.50
2023-01-09T04:32:56.866Z,23.90
2023-01-09T04:35:24.111Z,23.40
2023-01-09T04:37:51.311Z,23.00
2023-01-09T04:40:18.982Z,22.00
2023-01-09T04:42:46.361Z,22.80
2023-01-09T04:45:15.709Z,21.80
2023-01-09T04:47:44.853Z,19.30
2023-01-09T04:50:13.204Z,17.90
2023-01-09T04:52:40.560Z,16.00
2023-01-09T04:55:09.006Z,12.50
2023-01-09T04:57:36.699Z,10.60
2023-01-09T05:00:09.813Z,6.50
2023-01-09T05:02:37.859Z,1.00
2023-01-09T05:05:07.399Z,1.00
2023-01-09T05:07:36.087Z,1.00
2023-01-09T05:10:04.893Z,1.00
2023-01-09T05:12:32.522Z,1.00
2023-01-09T05:14:59.649Z,1.00
2023-01-09T05:17:26.795Z,1.00
2023-01-09T05:19:53.990Z,1.00
2023-01-09T05:22:21.266Z,1.00
2023-01-09T05:24:48.327Z,1.00
2023-01-09T05:27:15.494Z,1.00
2023-01-09T05:29:42.633Z,1.00
2023-01-09T05:32:09.793Z,1.00
2023-01-09T05:34:37.079Z,1.00
2023-01-09T05:37:04.239Z,1.00
2023-01-09T05:39:31.393Z,1.00
2023-01-09T05:41:58.567Z,1.00
2023-01-09T05:44:25.664Z,1.00
2023-01-09T05:46:52.823Z,1.00
2023-01-09T05:49:19.916Z,1.00
2023-01-09T05:51:47.001Z,1.00
2023-01-09T05:54:14.132Z,1.00
2023-01-09T05:56:42.831Z,1.00
2023-01-09T05:59:10.051Z,1.00
2023-01-09T06:01:37.239Z,1.00
2023-01-09T06:04:04.518Z,1.00
2023-01-09T06:06:31.691Z,1.00
2023-01-09T06:08:58.853Z,1.00
2023-01-09T06:11:25.906Z,1.00
2023-01-09T06:13:53.063Z,1.00
2023-01-09T06:16:20.229Z,1.00
2023-01-09T06:18:47.533Z,1.00
2023-01-09T06:21:15.198Z,1.00
2023-01-09T06:23:42.397Z,1.00
2023-01-09T06:26:09.539Z,1.00
2023-01-09T06:28:36.746Z,1.00
2023-01-09T06:31:03.950Z,1.00
2023-01-09T06:33:32.145Z,1.00
2023-01-09T06:35:59.529Z,1.00
2023-01-09T06:38:26.746Z,1.00
2023-01-09T06:40:53.878Z,1.00
2023-01-09T06:43:20.999Z,1.00
2023-01-09T06:45:48.924Z,1.00
2023-01-09T06:48:16.091Z,1.00
2023-01-09T06:50:43.304Z,1.00
2023-01-09T06:53:11.020Z,1.00
2023-01-09T06:55:38.170Z,1.00
2023-01-09T06:58:05.260Z,1.00
2023-01-09T07:00:32.479Z,1.00
2023-01-09T07:02:59.596Z,1.00
2023-01-09T07:05:27.092Z,1.00
2023-01-09T07:07:54.376Z,1.00
2023-01-09T07:10:21.526Z,1.00
2023-01-09T07:12:48.746Z,1.00
2023-01-09T07:15:15.983Z,1.00
2023-01-09T07:17:43.137Z,1.00
2023-01-09T07:20:10.935Z,1.00
2023-01-09T07:22:38.250Z,1.00
2023-01-09T07:25:05.835Z,1.00
2023-01-09T07:27:33.004Z,1.00
2023-01-09T07:30:00.192Z,1.00
2023-01-09T07:32:27.410Z,1.00
2023-01-09T07:34:54.490Z,1.00
2023-01-09T07:37:21.644Z,1.00
2023-01-09T07:39:48.779Z,1.00
2023-01-09T07:42:16.367Z,1.00
2023-01-09T07:44:43.502Z,1.00
2023-01-09T07:47:10.693Z,1.00
2023-01-09T07:49:37.809Z,1.00
2023-01-09T07:52:05.289Z,7.50
2023-01-09T07:54:32.613Z,15.10
2023-01-09T07:56:59.827Z,17.20
2023-01-09T07:59:29.306Z,14.20
2023-01-09T08:01:57.134Z,12.70
2023-01-09T08:04:24.593Z,7.90
2023-01-09T08:06:51.735Z,7.40
2023-01-09T08:09:19.399Z,7.30
2023-01-09T08:11:46.511Z,9.20
2023-01-09T08:14:13.994Z,13.40
2023-01-09T08:16:41.104Z,19.10
2023-01-09T08:19:08.446Z,33.40
2023-01-09T08:21:35.603Z,47.70
2023-01-09T08:24:02.824Z,63.20
2023-01-09T08:26:29.971Z,83.80
2023-01-09T08:28:57.294Z,93.00
2023-01-09T08:31:24.453Z,97.60
2023-01-09T08:33:51.692Z,99.90
2023-01-09T08:36:18.921Z,99.90
2023-01-09T08:38:46.068Z,99.90
2023-01-09T08:41:31.558Z,99.90
2023-01-09T08:44:17.242Z,74.20
2023-01-09T08:47:02.865Z,1.00
2023-01-09T08:49:30.013Z,1.00
2023-01-09T08:51:57.214Z,99.90
2023-01-09T08:54:24.462Z,99.90
2023-01-09T08:56:51.887Z,99.90
2023-01-09T08:59:19.094Z,99.90
2023-01-09T09:01:46.315Z,99.90
2023-01-09T09:04:13.651Z,99.90
2023-01-09T09:06:41.013Z,99.90
2023-01-09T09:09:08.277Z,99.90
2023-01-09T09:11:36.007Z,99.90
2023-01-09T09:14:26.199Z,99.90
2023-01-09T09:16:54.038Z,99.90
2023-01-09T09:19:21.287Z,99.90
2023-01-09T09:21:48.659Z,99.90
2023-01-09T09:24:15.779Z,99.90
2023-01-09T09:26:44.569Z,99.90
2023-01-09T09:29:12.503Z,99.90
2023-01-09T09:31:39.815Z,99.90
2023-01-09T09:34:08.503Z,99.90
2023-01-09T09:36:35.707Z,99.90
2023-01-09T09:39:03.081Z,99.90
2023-01-09T09:42:06.877Z,99.90
2023-01-09T09:44:57.095Z,99.90
2023-01-09T09:47:35.611Z,99.90
2023-01-09T09:50:12.010Z,99.90
2023-01-09T09:52:58.231Z,99.90
2023-01-09T09:55:31.224Z,99.90
2023-01-09T09:58:03.063Z,99.90
2023-01-09T10:00:31.182Z,99.90
2023-01-09T10:03:36.743Z,99.90
2023-01-09T10:06:06.183Z,99.90
2023-01-09T10:08:52.410Z,99.90
2023-01-09T10:11:31.318Z,99.90
2023-01-09T10:14:22.985Z,99.90
2023-01-09T10:17:22.030Z,99.90
2023-01-09T10:20:28.343Z,99.90
2023-01-09T10:23:25.537Z,99.90
2023-01-09T10:26:17.847Z,99.90
2023-01-09T10:29:11.993Z,99.90
2023-01-09T10:32:20.523Z,99.90
2023-01-09T10:35:42.822Z,99.90
2023-01-09T10:38:20.297Z,99.90
2023-01-09T10:41:06.590Z,99.90
2023-01-09T10:43:51.635Z,99.90
2023-01-09T10:46:30.641Z,99.90
2023-01-09T10:49:07.031Z,99.90
2023-01-09T10:51:50.896Z,99.90
2023-01-09T10:54:22.295Z,99.90
2023-01-09T10:57:19.758Z,99.90
2023-01-09T10:59:46.929Z,99.90
2023-01-09T11:02:33.805Z,99.90
2023-01-09T11:05:01.044Z,99.90
2023-01-09T11:07:42.682Z,99.90
2023-01-09T11:10:12.266Z,99.90
2023-01-09T11:12:40.712Z,99.90
2023-01-09T11:15:31.348Z,99.90
2023-01-09T11:18:21.638Z,99.90
2023-01-09T11:20:48.882Z,99.90
2023-01-09T11:23:33.577Z,99.90
2023-01-09T11:26:02.609Z,99.90
2023-01-09T11:28:30.113Z,99.90
2023-01-09T11:31:02.473Z,99.90
2023-01-09T11:33:34.730Z,99.90
2023-01-09T11:36:14.098Z,99.90
2023-01-09T11:38:59.540Z,99.90
2023-01-09T11:41:37.519Z,99.90
2023-01-09T11:44:05.571Z,99.90
2023-01-09T11:46:41.115Z,99.90
2023-01-09T11:49:23.553Z,99.90
2023-01-09T11:52:12.134Z,99.90
2023-01-09T11:54:55.087Z,99.90
2023-01-09T11:57:24.578Z,99.90
2023-01-09T11:59:51.861Z,99.90
2023-01-09T12:02:34.259Z,99.90
2023-01-09T12:05:18.735Z,99.90
2023-01-09T12:07:48.675Z,99.90
2023-01-09T12:10:37.138Z,99.90
2023-01-09T12:13:30.357Z,99.90
2023-01-09T12:16:06.779Z,99.90
2023-01-09T12:18:52.471Z,99.90
2023-01-09T12:21:35.645Z,99.90
2023-01-09T12:24:22.261Z,99.90
2023-01-09T12:27:08.141Z,99.90
2023-01-09T12:29:53.365Z,99.90
2023-01-09T12:32:46.632Z,99.90
2023-01-09T12:35:20.935Z,99.90
2023-01-09T12:38:15.971Z,99.90
2023-01-09T12:41:06.153Z,99.90
2023-01-09T12:43:59.218Z,99.90
2023-01-09T12:46:30.631Z,99.90
2023-01-09T12:49:15.933Z,99.90
2023-01-09T12:51:55.728Z,99.90
2023-01-09T12:55:01.812Z,99.90
2023-01-09T12:57:40.084Z,99.90
2023-01-09T13:00:30.669Z,99.90
2023-01-09T13:03:12.404Z,79.90
2023-01-09T13:05:51.829Z,68.80
2023-01-09T13:08:39.560Z,70.50
2023-01-09T13:11:19.305Z,72.80
2023-01-09T13:13:50.429Z,66.40
2023-01-09T13:16:46.436Z,54.20
2023-01-09T13:19:37.977Z,47.80
2023-01-09T13:22:06.626Z,30.90
2023-01-09T13:25:05.594Z,30.30
2023-01-09T13:27:39.659Z,26.70
2023-01-09T13:30:30.901Z,16.10
2023-01-09T13:33:30.422Z,13.20
2023-01-09T13:35:59.457Z,9.70
2023-01-09T13:38:29.594Z,8.30
2023-01-09T13:41:45.916Z,13.80
2023-01-09T13:44:18.991Z,21.30
2023-01-09T13:46:49.793Z,17.50
2023-01-09T13:49:33.871Z,17.50
2023-01-09T13:52:05.314Z,26.50
2023-01-09T13:54:55.421Z,32.80
2023-01-09T13:57:36.858Z,39.10
2023-01-09T14:00:12.787Z,45.70
2023-01-09T14:02:41.102Z,32.50
2023-01-09T14:05:24.387Z,24.20
2023-01-09T14:08:12.896Z,34.10
2023-01-09T14:10:50.499Z,45.60
2023-01-09T14:13:39.143Z,52.10
2023-01-09T14:16:25.558Z,58.50
2023-01-09T14:19:04.724Z,65.60
2023-01-09T14:21:57.594Z,62.70
2023-01-09T14:24:30.614Z,77.40
2023-01-09T14:27:01.269Z,72.50
2023-01-09T14:29:44.376Z,76.60
2023-01-09T14:32:23.810Z,80.60
2023-01-09T14:34:58.398Z,84.20
2023-01-09T14:37:27.484Z,93.30
2023-01-09T14:39:56.309Z,96.10
2023-01-09T14:42:27.732Z,96.50
2023-01-09T14:44:59.663Z,95.60
2023-01-09T14:47:59.611Z,98.60
2023-01-09T14:50:51.300Z,99.30
2023-01-09T14:53:34.700Z,99.90
2023-01-09T14:56:06.825Z,99.90
2023-01-09T14:58:37.918Z,99.90
2023-01-09T15:01:11.149Z,99.90
2023-01-09T15:03:43.070Z,99.90
2023-01-09T15:06:17.435Z,99.90
2023-01-09T15:08:56.779Z,99.90
2023-01-09T15:11:24.970Z,99.90
2023-01-09T15:13:53.849Z,99.90
2023-01-09T15:16:23.470Z,99.90
2023-01-09T15:19:03.954Z,99.90
2023-01-09T15:21:32.303Z,99.90
2023-01-09T15:24:21.685Z,99.90
2023-01-09T15:26:53.796Z,99.90
2023-01-09T15:29:20.956Z,99.90
2023-01-09T15:31:55.111Z,99.90
2023-01-09T15:34:24.870Z,99.90
2023-01-09T15:36:53.351Z,99.90
2023-01-09T15:39:25.946Z,99.90
2023-01-09T15:42:12.966Z,99.90
2023-01-09T15:44:43.742Z,99.90
2023-01-09T15:47:23.791Z,99.90
2023-01-09T15:49:51.326Z,99.90
2023-01-09T15:52:19.395Z,99.90
2023-01-09T15:54:47.178Z,99.90
2023-01-09T15:57:26.584Z,99.90
2023-01-09T16:00:31.431Z,99.90
2023-01-09T16:03:10.691Z,99.90
2023-01-09T16:05:46.929Z,99.90
2023-01-09T16:08:24.561Z,99.90
2023-01-09T16:10:54.811Z,99.90
2023-01-09T16:13:24.522Z,99.90
2023-01-09T16:15:54.513Z,99.90
2023-01-09T16:18:29.266Z,99.90
2023-01-09T16:21:38.154Z,99.90
2023-01-09T16:24:14.530Z,99.90
2023-01-09T16:26:41.652Z,99.90
2023-01-09T16:29:36.473Z,99.90
2023-01-09T16:32:06.592Z,99.90
2023-01-09T16:34:36.087Z,99.90
2023-01-09T16:37:05.778Z,99.90
2023-01-09T16:39:32.988Z,99.90
2023-01-09T16:42:19.109Z,99.90
2023-01-09T16:44:46.254Z,99.90
2023-01-09T16:47:13.599Z,99.90
2023-01-09T16:49:40.809Z,99.90
2023-01-09T16:52:18.322Z,99.90
2023-01-09T16:54:47.675Z,99.90
2023-01-09T16:57:19.020Z,99.90
2023-01-09T16:59:46.840Z,99.90
2023-01-09T17:02:20.010Z,99.90
2023-01-09T17:04:47.692Z,99.90
2023-01-09T17:07:16.628Z,99.90
2023-01-09T17:09:44.287Z,99.90
2023-01-09T17:12:24.483Z,99.90
2023-01-09T17:14:51.695Z,99.90
2023-01-09T17:17:21.387Z,99.90
2023-01-09T17:19:49.107Z,99.90
2023-01-09T17:22:16.309Z,99.90
2023-01-09T17:25:01.950Z,99.90
2023-01-09T17:27:51.213Z,99.90
2023-01-09T17:30:19.741Z,99.90
2023-01-09T17:32:47.980Z,99.90
2023-01-09T17:35:16.419Z,99.90
2023-01-09T17:37:43.841Z,99.90
2023-01-09T17:40:22.939Z,99.90
2023-01-09T17:42:50.248Z,99.90
2023-01-09T17:45:17.507Z,99.90
2023-01-09T17:47:46.080Z,99.90
2023-01-09T17:50:21.778Z,99.90
2023-01-09T17:52:49.656Z,99.90
2023-01-09T17:55:17.202Z,99.90
2023-01-09T17:57:44.477Z,99.90
2023-01-09T18:00:26.803Z,99.90
2023-01-09T18:02:55.615Z,99.90
2023-01-09T18:05:24.530Z,99.90
2023-01-09T18:07:52.013Z,99.90
2023-01-09T18:10:24.006Z,99.90
2023-01-09T18:12:54.401Z,99.90
2023-01-09T18:15:24.819Z,99.90
2023-01-09T18:17:52.586Z,99.90
2023-01-09T18:20:20.100Z,99.90
2023-01-09T18:22:47.829Z,99.90
2023-01-09T18:25:15.322Z,99.90
2023-01-09T18:27:42.480Z,99.90
2023-01-09T18:30:10.775Z,99.90
2023-01-09T18:32:39.780Z,99.90
2023-01-09T18:35:09.449Z,99.90
2023-01-09T18:37:37.599Z,99.90
2023-01-09T18:40:05.588Z,99.90
2023-01-09T18:42:33.408Z,99.90
2023-01-09T18:45:00.920Z,99.90
2023-01-09T18:47:28.281Z,99.90
2023-01-09T18:49:56.912Z,99.90
2023-01-09T18:52:24.901Z,99.90
2023-01-09T18:54:52.546Z,99.90
2023-01-09T18:57:20.427Z,99.90
2023-01-09T18:59:47.750Z,99.90
2023-01-09T19:02:23.753Z,99.90
2023-01-09T19:04:52.416Z,99.90
2023-01-09T19:07:20.009Z,99.90
2023-01-09T19:09:48.204Z,99.90
2023-01-09T19:12:15.607Z,99.90
2023-01-09T19:14:43.191Z,99.90
2023-01-09T19:17:13.287Z,99.90
2023-01-09T19:19:40.982Z,99.90
2023-01-09T19:22:08.961Z,99.90
2023-01-09T19:24:38.182Z,99.90
2023-01-09T19:27:05.610Z,99.90
2023-01-09T19:29:34.145Z,99.90
2023-01-09T19:32:03.713Z,99.90
2023-01-09T19:34:31.811Z,99.90
2023-01-09T19:36:59.457Z,99.90
2023-01-09T19:39:27.664Z,99.90
2023-01-09T19:41:56.034Z,99.90
2023-01-09T19:44:23.777Z,99.90
2023-01-09T19:46:51.331Z,99.90
2023-01-09T19:49:20.924Z,99.90
2023-01-09T19:51:48.343Z,99.90
2023-01-09T19:54:16.641Z,99.90
2023-01-09T19:56:46.092Z,99.90
2023-01-09T19:59:14.957Z,99.90
2023-01-09T20:01:42.570Z,99.90
2023-01-09T20:04:16.426Z,99.90
2023-01-09T20:06:46.975Z,99.90
2023-01-09T20:09:18.445Z,99.90
2023-01-09T20:11:45.874Z,99.90
2023-01-09T20:14:15.539Z,99.90
2023-01-09T20:16:43.974Z,99.90
2023-01-09T20:19:12.786Z,99.90
2023-01-09T20:21:39.922Z,99.90
2023-01-09T20:24:13.623Z,99.90
2023-01-09T20:26:41.934Z,99.90
2023-01-09T20:29:09.356Z,99.90
2023-01-09T20:31:37.372Z,99.90
2023-01-09T20:34:05.363Z,99.90
2023-01-09T20:36:35.013Z,99.90
2023-01-09T20:39:05.962Z,99.90
2023-01-09T20:41:33.694Z,99.90
2023-01-09T20:44:09.986Z,99.90
2023-01-09T20:46:40.609Z,99.90
2023-01-09T20:49:10.836Z,99.90
2023-01-09T20:51:49.448Z,99.90
2023-01-09T20:54:18.832Z,99.90
2023-01-09T20:56:45.997Z,99.90
2023-01-09T20:59:21.119Z,99.90
2023-01-09T21:01:48.829Z,99.90
2023-01-09T21:04:16.040Z,99.90
2023-01-09T21:06:43.265Z,99.90
2023-01-09T21:09:10.443Z,99.90
2023-01-09T21:11:37.666Z,99.90
2023-01-09T21:14:04.818Z,99.90
2023-01-09T21:16:32.201Z,99.90
2023-01-09T21:18:59.389Z,99.90
2023-01-09T21:21:31.105Z,99.90
2023-01-09T21:24:01.209Z,99.90
2023-01-09T21:26:30.868Z,99.90
2023-01-09T21:29:00.345Z,99.90
2023-01-09T21:31:35.664Z,99.90
2023-01-09T21:34:08.263Z,99.90
2023-01-09T21:36:36.761Z,99.90
2023-01-09T21:39:07.915Z,99.90
2023-01-09T21:41:54.091Z,99.90
2023-01-09T21:44:39.794Z,99.90
2023-01-09T21:47:06.931Z,99.90
2023-01-09T21:49:36.317Z,99.90
2023-01-09T21:52:04.863Z,99.90
2023-01-09T21:54:32.383Z,99.90
2023-01-09T21:56:59.952Z,99.90
2023-01-09T21:59:27.091Z,99.90
2023-01-09T22:01:54.229Z,99.90
2023-01-09T22:04:23.808Z,99.90
2023-01-09T22:06:50.960Z,99.90
2023-01-09T22:09:18.786Z,99.90
2023-01-09T22:11:46.238Z,99.90
2023-01-09T22:14:15.804Z,99.90
2023-01-09T22:16:44.355Z,99.90
2023-01-09T22:19:12.688Z,99.90
2023-01-09T22:21:40.083Z,99.90
2023-01-09T22:24:07.542Z,99.90
2023-01-09T22:26:35.490Z,99.90
2023-01-09T22:29:02.749Z,99.90
2023-01-09T22:31:29.958Z,99.90
2023-01-09T22:33:58.719Z,99.90
2023-01-09T22:36:28.264Z,99.90
2023-01-09T22:38:56.431Z,99.90
2023-01-09T22:41:25.087Z,99.90
2023-01-09T22:43:52.591Z,99.90
2023-01-09T22:46:19.834Z,99.90
2023-01-09T22:48:47.709Z,99.90
2023-01-09T22:51:17.471Z,99.90
2023-01-09T22:53:45.355Z,99.90
2023-01-09T22:56:14.923Z,99.90
2023-01-09T22:58:42.938Z,99.90
2023-01-09T23:01:13.663Z,99.90
2023-01-09T23:03:41.407Z,99.90
2023-01-09T23:06:12.642Z,99.90
2023-01-09T23:08:40.500Z,99.90
2023-01-09T23:11:10.843Z,99.90
2023-01-09T23:13:39.039Z,99.90
2023-01-09T23:16:07.301Z,99.90
2023-01-09T23:18:38.029Z,99.90
2023-01-09T23:21:05.527Z,99.90
2023-01-09T23:23:33.778Z,99.90
2023-01-09T23:26:05.164Z,99.90
2023-01-09T23:28:32.417Z,99.90
2023-01-09T23:30:59.578Z,99.90
2023-01-09T23:33:26.700Z,99.90
2023-01-09T23:35:53.892Z,99.90
2023-01-09T23:38:21.076Z,99.90
2023-01-09T23:40:48.228Z,99.90
2023-01-09T23:43:15.762Z,99.90
2023-01-09T23:45:45.157Z,99.90
2023-01-09T23:48:14.606Z,99.90
2023-01-09T23:50:49.050Z,99.90
2023-01-09T23:53:17.275Z,99.90
2023-01-09T23:55:44.650Z,1.00
2023-01-09T23:58:11.872Z,1.00
